createdAt,value
2022-12-26T00:01:28.866Z,77.77
2022-12-26T00:03:58.055Z,77.96
2022-12-26T00:06:28.494Z,77.80
2022-12-26T00:08:58.103Z,78.20
2022-12-26T00:11:29.869Z,78.64
2022-12-26T00:14:00.097Z,78.03
2022-12-26T00:16:29.400Z,77.96
2022-12-26T00:18:57.796Z,77.97
2022-12-26T00:21:29.273Z,77.99
2022-12-26T00:23:59.764Z,77.93
2022-12-26T00:26:30.937Z,78.13
2022-12-26T00:28:59.689Z,78.45
2022-12-26T00:31:30.986Z,78.66
2022-12-26T00:33:59.570Z,78.62
2022-12-26T00:36:29.915Z,79.06
2022-12-26T00:38:59.780Z,78.80
2022-12-26T00:41:30.318Z,78.92
2022-12-26T00:43:59.329Z,78.80
2022-12-26T00:46:28.722Z,78.76
2022-12-26T00:48:58.135Z,78.88
2022-12-26T00:51:26.464Z,78.72
2022-12-26T00:53:55.031Z,78.92
2022-12-26T00:56:24.349Z,78.68
2022-12-26T00:58:54.151Z,78.79
2022-12-26T01:01:24.552Z,79.16
2022-12-26T01:03:53.428Z,79.05
2022-12-26T01:06:21.830Z,79.04
2022-12-26T01:08:51.419Z,79.32
2022-12-26T01:11:40.487Z,79.24
2022-12-26T01:14:13.007Z,79.35
2022-12-26T01:16:42.353Z,79.60
2022-12-26T01:19:12.086Z,78.95
2022-12-26T01:21:41.054Z,79.23
2022-12-26T01:24:09.473Z,79.11
2022-12-26T01:26:37.967Z,78.73
2022-12-26T01:29:06.296Z,79.10
2022-12-26T01:31:36.284Z,78.72
2022-12-26T01:34:04.768Z,78.98
2022-12-26T01:36:33.234Z,78.90
2022-12-26T01:39:01.566Z,78.75
2022-12-26T01:41:30.539Z,78.93
2022-12-26T01:44:00.946Z,78.86
2022-12-26T01:46:33.964Z,79.68
2022-12-26T01:49:10.521Z,79.69
2022-12-26T01:51:42.437Z,79.75
2022-12-26T01:54:39.562Z,79.85
2022-12-26T01:57:11.483Z,80.16
2022-12-26T01:59:42.770Z,80.21
2022-12-26T02:02:12.902Z,80.79
2022-12-26T02:05:06.198Z,80.98
2022-12-26T02:07:36.296Z,80.94
2022-12-26T02:10:05.498Z,81.23
2022-12-26T02:12:38.807Z,81.16
2022-12-26T02:15:12.447Z,81.17
2022-12-26T02:17:42.195Z,81.20
2022-12-26T02:20:19.912Z,81.47
2022-12-26T02:23:25.553Z,81.39
2022-12-26T02:26:26.577Z,81.56
2022-12-26T02:29:39.109Z,81.96
2022-12-26T02:32:16.488Z,81.57
2022-12-26T02:34:57.080Z,81.69
2022-12-26T02:37:37.038Z,81.54
2022-12-26T02:40:27.691Z,81.48
2022-12-26T02:43:00.513Z,81.50
2022-12-26T02:46:05.916Z,81.27
2022-12-26T02:48:46.788Z,81.34
2022-12-26T02:51:41.005Z,81.32
2022-12-26T02:54:49.062Z,80.98
2022-12-26T02:57:40.627Z,81.33
2022-12-26T03:00:33.110Z,81.04
2022-12-26T03:03:21.591Z,81.41
2022-12-26T03:06:15.027Z,80.87
2022-12-26T03:09:07.422Z,81.24
2022-12-26T03:11:58.409Z,81.13
2022-12-26T03:14:30.223Z,81.05
2022-12-26T03:17:20.132Z,81.02
2022-12-26T03:20:03.071Z,80.77
2022-12-26T03:22:41.020Z,80.31
2022-12-26T03:25:33.593Z,80.23
2022-12-26T03:28:02.079Z,79.76
2022-12-26T03:30:49.263Z,79.78
2022-12-26T03:33:35.933Z,79.69
2022-12-26T03:36:05.971Z,79.65
2022-12-26T03:38:51.530Z,79.29
2022-12-26T03:41:45.612Z,79.54
2022-12-26T03:44:53.305Z,79.92
2022-12-26T03:47:45.897Z,79.69
2022-12-26T03:50:41.336Z,79.83
2022-12-26T03:53:33.478Z,79.56
2022-12-26T03:56:27.074Z,79.72
2022-12-26T03:59:20.196Z,79.60
2022-12-26T04:02:04.437Z,79.45
2022-12-26T04:04:54.226Z,78.96
2022-12-26T04:07:56.568Z,78.95
2022-12-26T04:10:49.912Z,79.18
2022-12-26T04:13:42.142Z,79.17
2022-12-26T04:16:34.673Z,78.92
2022-12-26T04:19:26.362Z,78.54
2022-12-26T04:22:21.548Z,78.33
2022-12-26T04:25:15.400Z,78.55
2022-12-26T04:28:01.410Z,78.49
2022-12-26T04:30:53.859Z,77.85
2022-12-26T04:33:46.281Z,78.22
2022-12-26T04:36:36.693Z,78.00
2022-12-26T04:39:26.363Z,78.45
2022-12-26T04:42:15.077Z,78.00
2022-12-26T04:44:45.464Z,77.60
2022-12-26T04:47:15.296Z,78.23
2022-12-26T04:50:02.333Z,78.23
2022-12-26T04:52:51.535Z,78.26
2022-12-26T04:55:20.847Z,77.95
2022-12-26T04:57:49.235Z,77.60
2022-12-26T05:00:18.478Z,77.61
2022-12-26T05:03:05.704Z,77.97
2022-12-26T05:06:06.223Z,78.00
2022-12-26T05:08:55.375Z,78.24
2022-12-26T05:11:25.563Z,78.34
2022-12-26T05:13:54.474Z,77.96
2022-12-26T05:16:40.712Z,78.24
2022-12-26T05:19:38.334Z,77.94
2022-12-26T05:22:24.695Z,77.92
2022-12-26T05:25:11.183Z,77.83
2022-12-26T05:28:00.923Z,77.55
2022-12-26T05:30:29.704Z,77.97
2022-12-26T05:33:15.451Z,77.80
2022-12-26T05:35:45.436Z,77.40
2022-12-26T05:38:14.999Z,77.39
2022-12-26T05:40:43.452Z,77.45
2022-12-26T05:43:12.576Z,77.35
2022-12-26T05:45:40.912Z,77.52
2022-12-26T05:48:09.314Z,77.43
2022-12-26T05:50:37.793Z,77.09
2022-12-26T05:53:07.684Z,77.31
2022-12-26T05:55:36.120Z,77.06
2022-12-26T05:58:04.552Z,77.03
2022-12-26T06:00:33.385Z,76.93
2022-12-26T06:03:02.314Z,76.80
2022-12-26T06:05:30.830Z,76.73
2022-12-26T06:07:59.216Z,76.68
2022-12-26T06:10:29.876Z,76.45
2022-12-26T06:12:58.267Z,76.66
2022-12-26T06:15:26.684Z,76.55
2022-12-26T06:17:56.682Z,76.14
2022-12-26T06:20:25.096Z,76.67
2022-12-26T06:22:53.459Z,76.39
2022-12-26T06:25:21.858Z,76.51
2022-12-26T06:27:51.618Z,76.55
2022-12-26T06:30:20.080Z,76.90
2022-12-26T06:32:48.562Z,76.61
2022-12-26T06:35:17.197Z,76.42
2022-12-26T06:37:45.620Z,76.59
2022-12-26T06:40:14.670Z,76.71
2022-12-26T06:42:43.117Z,76.77
2022-12-26T06:45:13.283Z,76.40
2022-12-26T06:47:41.759Z,76.77
2022-12-26T06:50:11.147Z,76.70
2022-12-26T06:52:39.678Z,76.51
2022-12-26T06:55:08.769Z,76.70
2022-12-26T06:57:37.168Z,76.49
2022-12-26T07:00:06.400Z,76.02
2022-12-26T07:02:36.258Z,75.78
2022-12-26T07:05:05.368Z,76.13
2022-12-26T07:07:33.780Z,75.70
2022-12-26T07:10:02.087Z,76.30
2022-12-26T07:12:31.493Z,76.01
2022-12-26T07:15:01.908Z,75.76
2022-12-26T07:17:31.572Z,76.03
2022-12-26T07:20:01.346Z,76.20
2022-12-26T07:22:30.383Z,76.12
2022-12-26T07:24:58.728Z,75.79
2022-12-26T07:27:27.175Z,76.07
2022-12-26T07:29:55.533Z,75.66
2022-12-26T07:32:24.956Z,75.68
2022-12-26T07:34:53.410Z,75.83
2022-12-26T07:37:23.244Z,75.93
2022-12-26T07:39:56.928Z,75.86
2022-12-26T07:42:27.713Z,75.72
2022-12-26T07:44:56.174Z,75.63
2022-12-26T07:47:24.662Z,75.52
2022-12-26T07:49:54.175Z,75.60
2022-12-26T07:52:24.044Z,75.43
2022-12-26T07:54:53.399Z,76.04
2022-12-26T07:57:47.384Z,75.53
2022-12-26T08:00:11.920Z,76.07
2022-12-26T08:02:43.401Z,76.13
2022-12-26T08:05:11.894Z,75.93
2022-12-26T08:07:41.853Z,76.20
2022-12-26T08:10:10.742Z,76.20
2022-12-26T08:12:39.789Z,76.36
2022-12-26T08:15:10.138Z,75.77
2022-12-26T08:17:38.572Z,75.32
2022-12-26T08:20:08.041Z,74.99
2022-12-26T08:22:36.466Z,74.94
2022-12-26T08:25:07.744Z,74.88
2022-12-26T08:27:36.292Z,74.89
2022-12-26T08:30:05.517Z,75.09
2022-12-26T08:32:33.995Z,75.08
2022-12-26T08:35:03.366Z,74.81
2022-12-26T08:37:31.823Z,74.90
2022-12-26T08:40:00.157Z,74.91
2022-12-26T08:42:30.730Z,74.53
2022-12-26T08:44:59.115Z,74.66
2022-12-26T08:47:27.688Z,74.98
2022-12-26T08:49:56.067Z,75.00
2022-12-26T08:52:24.717Z,74.55
2022-12-26T08:54:53.085Z,74.83
2022-12-26T08:57:21.473Z,74.98
2022-12-26T08:59:52.360Z,74.71
2022-12-26T09:02:20.798Z,74.50
2022-12-26T09:04:49.352Z,74.97
2022-12-26T09:07:17.784Z,74.67
2022-12-26T09:09:47.561Z,75.16
2022-12-26T09:12:15.922Z,74.94
2022-12-26T09:14:45.313Z,74.59
2022-12-26T09:17:15.335Z,74.40
2022-12-26T09:19:43.868Z,74.53
2022-12-26T09:22:33.552Z,74.61
2022-12-26T09:25:03.757Z,74.78
2022-12-26T09:27:32.107Z,74.98
2022-12-26T09:30:01.118Z,75.14
2022-12-26T09:32:34.433Z,74.80
2022-12-26T09:35:03.018Z,74.33
2022-12-26T09:37:31.429Z,74.21
2022-12-26T09:39:59.796Z,73.86
2022-12-26T09:42:38.420Z,73.20
2022-12-26T09:45:13.273Z,73.44
2022-12-26T09:47:53.276Z,73.60
2022-12-26T09:50:28.722Z,73.40
2022-12-26T09:53:00.785Z,72.89
2022-12-26T09:55:38.609Z,72.75
2022-12-26T09:58:16.257Z,72.98
2022-12-26T10:00:51.943Z,72.41
2022-12-26T10:03:23.412Z,71.97
2022-12-26T10:06:03.300Z,71.27
2022-12-26T10:09:02.970Z,70.80
2022-12-26T10:11:41.966Z,71.12
2022-12-26T10:14:21.707Z,71.21
2022-12-26T10:16:57.970Z,71.46
2022-12-26T10:19:40.066Z,71.08
2022-12-26T10:22:24.087Z,70.68
2022-12-26T10:24:53.603Z,70.60
2022-12-26T10:27:23.707Z,70.73
2022-12-26T10:29:56.823Z,71.03
2022-12-26T10:32:31.090Z,70.29
2022-12-26T10:35:02.535Z,69.13
2022-12-26T10:37:38.189Z,69.10
2022-12-26T10:40:18.541Z,69.42
2022-12-26T10:42:51.587Z,68.50
2022-12-26T10:45:29.049Z,68.66
2022-12-26T10:47:57.766Z,68.44
2022-12-26T10:50:30.148Z,68.26
2022-12-26T10:53:00.069Z,68.38
2022-12-26T10:55:34.468Z,68.12
2022-12-26T10:58:08.078Z,68.17
2022-12-26T11:00:36.641Z,68.27
2022-12-26T11:03:08.049Z,68.86
2022-12-26T11:06:06.563Z,68.66
2022-12-26T11:08:43.031Z,68.89
2022-12-26T11:11:15.726Z,68.92
2022-12-26T11:13:50.756Z,69.06
2022-12-26T11:16:26.865Z,69.23
2022-12-26T11:18:55.500Z,69.25
2022-12-26T11:21:27.992Z,69.34
2022-12-26T11:24:17.714Z,69.26
2022-12-26T11:26:46.171Z,69.59
2022-12-26T11:29:16.878Z,68.88
2022-12-26T11:31:54.184Z,69.09
2022-12-26T11:34:32.676Z,69.14
2022-12-26T11:37:03.265Z,68.82
2022-12-26T11:39:36.248Z,68.16
2022-12-26T11:42:11.396Z,68.19
2022-12-26T11:44:45.142Z,67.81
2022-12-26T11:47:15.655Z,68.35
2022-12-26T11:49:53.374Z,67.89
2022-12-26T11:52:51.931Z,67.47
2022-12-26T11:55:33.626Z,66.82
2022-12-26T11:58:12.837Z,66.64
2022-12-26T12:00:43.264Z,65.44
2022-12-26T12:03:15.335Z,65.59
2022-12-26T12:05:51.838Z,65.64
2022-12-26T12:08:33.023Z,65.46
2022-12-26T12:11:20.561Z,65.95
2022-12-26T12:14:14.073Z,65.85
2022-12-26T12:16:54.451Z,65.73
2022-12-26T12:19:33.539Z,65.86
2022-12-26T12:22:18.979Z,66.44
2022-12-26T12:25:01.966Z,66.72
2022-12-26T12:27:33.312Z,66.70
2022-12-26T12:30:19.200Z,66.46
2022-12-26T12:33:12.113Z,66.59
2022-12-26T12:35:55.101Z,66.60
2022-12-26T12:38:31.274Z,66.44
2022-12-26T12:41:10.415Z,66.51
2022-12-26T12:43:44.984Z,66.30
2022-12-26T12:46:24.118Z,66.53
2022-12-26T12:49:18.667Z,66.47
2022-12-26T12:51:55.483Z,66.50
2022-12-26T12:54:46.901Z,66.84
2022-12-26T12:57:24.420Z,66.83
2022-12-26T13:00:04.902Z,66.89
2022-12-26T13:02:39.574Z,67.00
2022-12-26T13:05:19.789Z,66.73
2022-12-26T13:07:53.112Z,66.75
2022-12-26T13:10:26.377Z,66.53
2022-12-26T13:12:57.544Z,66.50
2022-12-26T13:15:32.655Z,66.78
2022-12-26T13:18:06.509Z,66.91
2022-12-26T13:20:41.838Z,66.28
2022-12-26T13:23:38.502Z,66.37
2022-12-26T13:26:12.609Z,66.58
2022-12-26T13:29:00.533Z,66.05
2022-12-26T13:31:34.156Z,66.02
2022-12-26T13:34:03.328Z,66.56
2022-12-26T13:36:37.668Z,66.59
2022-12-26T13:39:32.532Z,66.84
2022-12-26T13:42:22.393Z,66.73
2022-12-26T13:44:53.708Z,66.77
2022-12-26T13:47:37.147Z,66.47
2022-12-26T13:50:42.680Z,66.54
2022-12-26T13:53:30.044Z,66.36
2022-12-26T13:56:12.732Z,66.63
2022-12-26T13:58:56.718Z,66.59
2022-12-26T14:01:40.251Z,66.83
2022-12-26T14:04:41.800Z,66.68
2022-12-26T14:07:23.213Z,66.86
2022-12-26T14:10:04.672Z,66.76
2022-12-26T14:12:44.615Z,66.46
2022-12-26T14:15:40.411Z,66.51
2022-12-26T14:18:25.473Z,66.67
2022-12-26T14:21:11.249Z,66.65
2022-12-26T14:23:47.336Z,66.86
2022-12-26T14:26:30.020Z,66.81
2022-12-26T14:29:05.574Z,66.91
2022-12-26T14:31:44.958Z,67.13
2022-12-26T14:34:28.919Z,67.15
2022-12-26T14:37:05.394Z,67.33
2022-12-26T14:39:40.113Z,67.44
2022-12-26T14:42:59.735Z,67.41
2022-12-26T14:45:46.628Z,67.41
2022-12-26T14:48:55.669Z,67.63
2022-12-26T14:51:40.452Z,67.64
2022-12-26T14:54:37.585Z,67.82
2022-12-26T14:57:54.160Z,68.14
2022-12-26T15:00:45.410Z,68.47
2022-12-26T15:03:35.266Z,68.46
2022-12-26T15:06:29.800Z,68.49
2022-12-26T15:09:20.633Z,68.61
2022-12-26T15:12:28.800Z,68.65
2022-12-26T15:15:27.430Z,68.65
2022-12-26T15:18:27.241Z,68.92
2022-12-26T15:21:20.015Z,69.01
2022-12-26T15:25:08.719Z,69.17
2022-12-26T15:27:46.015Z,69.42
2022-12-26T15:30:23.072Z,69.51
2022-12-26T15:33:00.350Z,69.67
2022-12-26T15:35:34.901Z,69.77
2022-12-26T15:38:16.647Z,69.79
2022-12-26T15:40:53.439Z,70.06
2022-12-26T15:43:36.371Z,69.97
2022-12-26T15:46:14.480Z,70.29
2022-12-26T15:48:54.024Z,70.50
2022-12-26T15:51:34.415Z,70.45
2022-12-26T15:54:20.506Z,70.65
2022-12-26T15:56:57.637Z,70.71
2022-12-26T15:59:49.934Z,70.99
2022-12-26T16:02:34.654Z,71.29
2022-12-26T16:05:25.792Z,71.57
2022-12-26T16:07:59.872Z,72.19
2022-12-26T16:10:31.982Z,72.31
2022-12-26T16:13:07.227Z,71.99
2022-12-26T16:16:05.798Z,72.38
2022-12-26T16:18:42.519Z,72.56
2022-12-26T16:21:31.844Z,72.36
2022-12-26T16:24:00.206Z,72.37
2022-12-26T16:26:33.356Z,71.99
2022-12-26T16:29:03.360Z,72.05
2022-12-26T16:31:32.371Z,72.43
2022-12-26T16:34:01.694Z,72.15
2022-12-26T16:36:36.040Z,72.46
2022-12-26T16:39:10.551Z,72.92
2022-12-26T16:42:04.053Z,72.82
2022-12-26T16:44:38.349Z,72.95
2022-12-26T16:47:12.819Z,73.22
2022-12-26T16:49:43.634Z,73.36
2022-12-26T16:52:33.154Z,72.90
2022-12-26T16:55:26.815Z,72.31
2022-12-26T16:57:57.794Z,72.16
2022-12-26T17:00:28.871Z,72.75
2022-12-26T17:03:00.864Z,72.64
2022-12-26T17:05:32.751Z,72.93
2022-12-26T17:08:03.558Z,72.87
2022-12-26T17:10:34.008Z,72.63
2022-12-26T17:13:06.618Z,72.62
2022-12-26T17:15:39.120Z,73.02
2022-12-26T17:18:32.797Z,72.89
2022-12-26T17:21:18.212Z,73.33
2022-12-26T17:23:47.422Z,73.96
2022-12-26T17:26:24.908Z,73.50
2022-12-26T17:28:53.742Z,73.28
2022-12-26T17:31:32.732Z,73.02
2022-12-26T17:34:07.883Z,73.40
2022-12-26T17:37:17.312Z,73.44
2022-12-26T17:39:26.545Z,72.41
2022-12-26T17:41:57.038Z,72.57
2022-12-26T17:44:40.398Z,72.31
2022-12-26T17:47:19.060Z,72.82
2022-12-26T17:49:51.319Z,73.10
2022-12-26T17:52:21.941Z,73.31
2022-12-26T17:54:51.012Z,73.35
2022-12-26T17:57:22.070Z,73.82
2022-12-26T17:59:51.989Z,74.06
2022-12-26T18:02:21.936Z,73.56
2022-12-26T18:04:51.275Z,74.07
2022-12-26T18:07:30.835Z,74.19
2022-12-26T18:10:00.573Z,74.20
2022-12-26T18:12:29.065Z,73.81
2022-12-26T18:15:01.736Z,74.11
2022-12-26T18:17:34.571Z,74.25
2022-12-26T18:20:03.848Z,74.04
2022-12-26T18:22:32.228Z,74.12
2022-12-26T18:25:00.719Z,74.03
2022-12-26T18:27:31.962Z,73.83
2022-12-26T18:30:01.155Z,74.02
2022-12-26T18:32:32.499Z,74.03
2022-12-26T18:35:01.797Z,74.35
2022-12-26T18:37:31.471Z,74.71
2022-12-26T18:39:59.938Z,74.53
2022-12-26T18:42:28.226Z,74.31
2022-12-26T18:44:56.705Z,74.30
2022-12-26T18:47:25.237Z,74.91
2022-12-26T18:49:55.901Z,74.80
2022-12-26T18:52:26.233Z,74.63
2022-12-26T18:54:55.682Z,74.29
2022-12-26T18:57:24.163Z,74.60
2022-12-26T18:59:53.410Z,74.76
2022-12-26T19:02:23.361Z,74.82
2022-12-26T19:04:54.402Z,74.88
2022-12-26T19:07:22.763Z,74.72
2022-12-26T19:09:55.143Z,75.05
2022-12-26T19:12:24.102Z,74.96
2022-12-26T19:14:53.039Z,74.38
2022-12-26T19:17:21.882Z,74.75
2022-12-26T19:19:50.518Z,74.81
2022-12-26T19:22:20.319Z,75.24
2022-12-26T19:24:48.666Z,75.67
2022-12-26T19:27:17.134Z,75.92
2022-12-26T19:29:45.618Z,76.16
2022-12-26T19:32:14.045Z,75.56
2022-12-26T19:34:42.562Z,75.11
2022-12-26T19:37:12.210Z,74.82
2022-12-26T19:39:42.177Z,75.32
2022-12-26T19:42:10.675Z,75.76
2022-12-26T19:44:39.036Z,75.75
2022-12-26T19:47:12.124Z,75.71
2022-12-26T19:49:41.618Z,75.43
2022-12-26T19:52:10.146Z,75.08
2022-12-26T19:54:38.795Z,74.93
2022-12-26T19:57:08.647Z,74.86
2022-12-26T19:59:37.213Z,75.10
2022-12-26T20:02:06.088Z,75.09
2022-12-26T20:04:34.631Z,74.82
2022-12-26T20:07:02.933Z,74.73
2022-12-26T20:09:31.433Z,74.10
2022-12-26T20:11:59.746Z,75.43
2022-12-26T20:14:32.724Z,75.88
2022-12-26T20:17:07.227Z,75.77
2022-12-26T20:19:37.201Z,75.51
2022-12-26T20:22:07.088Z,75.98
2022-12-26T20:24:35.983Z,76.11
2022-12-26T20:27:05.621Z,75.85
2022-12-26T20:29:35.583Z,75.70
2022-12-26T20:32:03.977Z,75.62
2022-12-26T20:34:32.447Z,76.04
2022-12-26T20:37:00.928Z,76.09
2022-12-26T20:39:29.368Z,76.20
2022-12-26T20:41:57.698Z,76.12
2022-12-26T20:44:26.057Z,76.35
2022-12-26T20:46:55.770Z,76.31
2022-12-26T20:49:24.180Z,76.19
2022-12-26T20:51:52.561Z,76.59
2022-12-26T20:54:21.435Z,75.48
2022-12-26T20:56:49.833Z,76.34
2022-12-26T20:59:18.554Z,76.46
2022-12-26T21:01:48.571Z,76.09
2022-12-26T21:04:23.314Z,76.26
2022-12-26T21:06:56.521Z,76.40
2022-12-26T21:09:30.885Z,76.18
2022-12-26T21:12:03.236Z,76.41
2022-12-26T21:14:37.900Z,76.48
2022-12-26T21:17:12.159Z,76.75
2022-12-26T21:19:49.807Z,75.63
2022-12-26T21:22:20.384Z,76.50
2022-12-26T21:24:49.712Z,76.20
2022-12-26T21:27:18.878Z,75.94
2022-12-26T21:29:47.437Z,75.96
2022-12-26T21:32:15.779Z,76.49
2022-12-26T21:34:45.756Z,75.82
2022-12-26T21:37:31.371Z,75.53
2022-12-26T21:40:00.047Z,75.93
2022-12-26T21:42:29.403Z,75.98
2022-12-26T21:44:57.951Z,76.41
2022-12-26T21:47:26.327Z,76.03
2022-12-26T21:49:56.145Z,76.46
2022-12-26T21:52:24.691Z,76.41
2022-12-26T21:55:10.439Z,76.17
2022-12-26T21:57:39.269Z,76.71
2022-12-26T22:00:09.630Z,76.40
2022-12-26T22:02:57.585Z,76.08
2022-12-26T22:05:29.575Z,76.63
2022-12-26T22:07:59.993Z,76.68
2022-12-26T22:10:49.113Z,76.50
2022-12-26T22:13:18.020Z,76.56
2022-12-26T22:16:07.513Z,76.51
2022-12-26T22:18:43.426Z,76.12
2022-12-26T22:21:15.632Z,76.03
2022-12-26T22:23:50.556Z,76.22
2022-12-26T22:26:21.503Z,76.79
2022-12-26T22:28:52.154Z,76.80
2022-12-26T22:31:24.994Z,76.80
2022-12-26T22:33:56.894Z,76.56
2022-12-26T22:36:33.661Z,76.82
2022-12-26T22:39:02.356Z,76.34
2022-12-26T22:41:38.783Z,76.17
2022-12-26T22:44:08.281Z,76.06
2022-12-26T22:46:36.998Z,76.71
2022-12-26T22:49:06.456Z,75.82
2022-12-26T22:51:36.202Z,76.69
2022-12-26T22:54:05.781Z,76.49
2022-12-26T22:56:34.505Z,76.84
2022-12-26T22:59:03.223Z,76.41
2022-12-26T23:01:41.784Z,76.64
2022-12-26T23:04:12.289Z,75.59
2022-12-26T23:06:42.761Z,76.48
2022-12-26T23:09:15.142Z,76.73
2022-12-26T23:12:06.861Z,76.74
2022-12-26T23:14:35.971Z,77.37
2022-12-26T23:17:08.921Z,76.72
2022-12-26T23:20:08.785Z,76.16
2022-12-26T23:22:39.092Z,76.40
2022-12-26T23:25:07.953Z,77.23
2022-12-26T23:27:53.382Z,75.89
2022-12-26T23:30:21.769Z,76.07
2022-12-26T23:32:52.066Z,75.72
2022-12-26T23:35:22.621Z,76.30
2022-12-26T23:37:53.831Z,75.58
2022-12-26T23:40:23.032Z,76.47
2022-12-26T23:42:51.458Z,76.07
2022-12-26T23:45:20.029Z,76.25
2022-12-26T23:47:48.574Z,76.36
2022-12-26T23:50:18.078Z,76.75
2022-12-26T23:52:46.668Z,76.73
2022-12-26T23:55:16.516Z,76.05
2022-12-26T23:57:45.886Z,76.12
